HPN weather

Nestle Heliport
Miguel Hidalgo, Distrito Federal, Mexico

Public forecast

Using degrees Celsius for public forecast. Weather courtesy of forecast.io.

METAR (pilot weather report)

Closest report is Licenciado Benito Juarez International Airport, 6.6 nm (12.2 km) E. Retrieved 2019/06/16 13:45 UTC (16 minutes ago):

MMMX 161345Z 08003KT 7SM SCT200 17/11 A3031 NOSIG RMK 8/001 HZY

TAF (pilot weather forecast)

Closest forecast is Licenciado Benito Juarez International Airport, 6.6 nm (12.2 km) E. Retrieved 2019/06/16 12:10 UTC (2 hours ago):

TAF MMMX 161004Z 1612/1718 08005KT 6SM HZ SCT080 SCT200 TX26/1621Z TN15/1612Z FM161800 03010KT P6SM SCT020 BKN200 TEMPO 1623/1703 6SM -TSRA BKN020CB FM170500 03005KT 6SM HZ SCT020 SCT090 BKN200 FM171800 03010KT 6SM HZ SCT025 SCT200